Time;durP1;ratioP1;P1;durP2;ratioP2;P2;SDS_P1;SDS_P2;PMS_P1;PMS_P2;Temp;Humidity;BMP_temperature;BMP_pressure;BME280_temperature;BME280_humidity;BME280_pressure;Samples;Min_cycle;Max_cycle;Signal;HPM_P1;HPM_P2
2024/01/24 00:01:27;;;;;;;5.70;5.60;;;12.50;99.90;;;;;;5040871;28;20519;-73
2024/01/24 00:03:54;;;;;;;5.70;5.60;;;12.50;99.90;;;;;;5041039;28;20452;-72
2024/01/24 00:06:22;;;;;;;5.97;5.87;;;12.50;99.90;;;;;;5043575;28;20555;-73
2024/01/24 00:08:50;;;;;;;5.80;5.70;;;12.50;99.90;;;;;;5043231;28;20555;-74
2024/01/24 00:11:17;;;;;;;5.17;5.07;;;12.50;99.90;;;;;;5040074;28;20473;-73
2024/01/24 00:13:44;;;;;;;5.50;5.40;;;12.50;99.90;;;;;;5039487;28;20466;-73
2024/01/24 00:16:11;;;;;;;5.53;5.43;;;12.50;99.90;;;;;;5041201;28;20510;-72
2024/01/24 00:18:38;;;;;;;5.80;5.70;;;12.60;99.90;;;;;;5040581;28;20460;-72
2024/01/24 00:21:05;;;;;;;5.03;5.03;;;12.60;99.90;;;;;;5034435;28;20530;-73
2024/01/24 00:23:33;;;;;;;5.40;5.30;;;12.60;99.90;;;;;;5044351;28;20450;-73
2024/01/24 00:26:00;;;;;;;5.30;5.20;;;12.60;99.90;;;;;;5041703;28;20835;-73
2024/01/24 00:28:27;;;;;;;5.80;5.70;;;12.60;99.90;;;;;;5040827;28;20491;-74
2024/01/24 00:30:55;;;;;;;5.53;5.43;;;12.60;99.90;;;;;;5035335;28;20466;-73
2024/01/24 00:33:23;;;;;;;6.20;6.10;;;12.70;99.90;;;;;;5043956;28;20522;-72
2024/01/24 00:35:50;;;;;;;6.13;6.03;;;12.60;99.90;;;;;;5044784;28;20486;-72
2024/01/24 00:38:17;;;;;;;6.10;6.00;;;12.70;99.90;;;;;;5040535;28;20471;-73
2024/01/24 00:40:45;;;;;;;6.20;6.10;;;12.70;99.90;;;;;;5041054;28;20575;-72
2024/01/24 00:43:12;;;;;;;6.43;6.33;;;12.70;99.90;;;;;;5042815;28;20459;-70
2024/01/24 00:45:39;;;;;;;7.03;6.93;;;12.80;99.90;;;;;;5040024;28;20461;-70
2024/01/24 00:48:07;;;;;;;7.37;7.27;;;12.90;99.90;;;;;;5038548;28;20486;-72
2024/01/24 00:50:35;;;;;;;7.50;7.40;;;12.90;99.90;;;;;;5040813;28;20486;-70
2024/01/24 00:53:04;;;;;;;7.57;7.47;;;12.90;99.90;;;;;;5043400;28;20473;-71
2024/01/24 00:55:32;;;;;;;7.60;7.50;;;13.00;99.90;;;;;;5043293;28;20553;-71
2024/01/24 00:58:00;;;;;;;7.73;7.63;;;13.00;99.90;;;;;;5042797;28;20471;-71
2024/01/24 01:00:28;;;;;;;8.30;8.20;;;13.00;99.90;;;;;;5037031;28;20464;-71
2024/01/24 01:02:55;;;;;;;8.10;8.00;;;13.10;99.90;;;;;;5041855;28;20465;-71
2024/01/24 01:05:24;;;;;;;8.43;8.33;;;13.00;99.90;;;;;;5041920;28;20464;-69
2024/01/24 01:07:51;;;;;;;7.90;7.80;;;13.10;99.90;;;;;;5043645;28;20558;-71
2024/01/24 01:10:18;;;;;;;8.13;8.03;;;13.20;99.90;;;;;;5039877;28;20471;-70
2024/01/24 01:12:45;;;;;;;8.63;8.53;;;13.20;99.90;;;;;;5037807;28;20459;-71
2024/01/24 01:15:13;;;;;;;8.47;8.37;;;13.20;99.90;;;;;;5041987;28;20507;-71
2024/01/24 01:17:40;;;;;;;8.97;8.77;;;13.30;99.90;;;;;;5041936;28;20962;-71
2024/01/24 01:20:10;;;;;;;9.03;8.83;;;13.40;99.90;;;;;;5044008;28;20462;-73
2024/01/24 01:22:37;;;;;;;9.50;9.30;;;13.40;99.90;;;;;;5041517;28;20486;-72
2024/01/24 01:25:04;;;;;;;9.43;9.23;;;13.40;99.90;;;;;;5038885;28;21200;-72
2024/01/24 01:27:31;;;;;;;9.50;9.30;;;13.40;99.90;;;;;;5040841;28;20458;-72
2024/01/24 01:29:58;;;;;;;9.50;9.30;;;13.50;99.90;;;;;;5043810;28;20456;-72
2024/01/24 01:32:26;;;;;;;9.67;9.47;;;13.50;99.90;;;;;;5037477;28;20470;-71
2024/01/24 01:34:54;;;;;;;9.77;9.57;;;13.50;99.90;;;;;;5046813;28;20464;-72
2024/01/24 01:37:23;;;;;;;10.03;9.83;;;13.50;99.90;;;;;;5044790;28;20457;-71
2024/01/24 01:39:50;;;;;;;10.20;10.00;;;13.50;99.90;;;;;;5046192;28;20459;-70
2024/01/24 01:42:17;;;;;;;10.00;9.80;;;13.50;99.90;;;;;;5041472;28;20496;-71
2024/01/24 01:44:49;;;;;;;9.53;9.33;;;13.60;99.90;;;;;;5046677;28;20472;-72
2024/01/24 01:47:17;;;;;;;10.20;10.00;;;13.60;99.90;;;;;;5040521;28;21077;-71
2024/01/24 01:49:46;;;;;;;10.27;10.07;;;13.50;99.90;;;;;;5047887;28;20475;-71
2024/01/24 01:52:13;;;;;;;9.83;9.63;;;13.50;99.90;;;;;;5045898;28;20852;-70
2024/01/24 01:54:42;;;;;;;10.00;9.80;;;13.50;99.90;;;;;;5040129;28;20481;-71
2024/01/24 01:57:11;;;;;;;10.00;9.80;;;13.50;99.90;;;;;;5042796;28;20468;-72
2024/01/24 01:59:41;;;;;;;10.07;9.87;;;13.60;99.90;;;;;;5044934;28;21060;-73
2024/01/24 02:02:08;;;;;;;9.80;9.60;;;13.60;99.90;;;;;;5042338;28;20594;-73
2024/01/24 02:04:35;;;;;;;10.90;10.60;;;13.60;99.90;;;;;;5046736;28;20965;-72
2024/01/24 02:07:03;;;;;;;10.80;10.50;;;13.70;99.90;;;;;;5043200;28;20471;-72
2024/01/24 02:09:30;;;;;;;10.83;10.53;;;13.80;99.90;;;;;;5046664;28;20798;-71
2024/01/24 02:11:58;;;;;;;10.50;10.30;;;13.80;99.90;;;;;;5043537;28;20483;-72
2024/01/24 02:14:24;;;;;;;10.50;10.30;;;13.80;99.90;;;;;;5043057;28;20873;-72
2024/01/24 02:16:51;;;;;;;10.60;10.40;;;13.80;99.90;;;;;;5041718;28;20467;-73
2024/01/24 02:19:18;;;;;;;10.90;10.60;;;13.80;99.90;;;;;;5039458;28;20445;-73
2024/01/24 02:21:46;;;;;;;10.43;10.23;;;13.80;99.90;;;;;;5045026;28;20783;-73
2024/01/24 02:24:15;;;;;;;10.33;10.13;;;13.90;99.90;;;;;;5046231;28;20519;-73
2024/01/24 02:26:41;;;;;;;10.10;9.90;;;13.90;99.90;;;;;;5042441;28;20465;-72
2024/01/24 02:29:08;;;;;;;10.37;10.17;;;13.90;99.90;;;;;;5039692;28;20467;-72
2024/01/24 02:31:35;;;;;;;9.83;9.63;;;13.90;99.90;;;;;;5043199;28;20460;-72
2024/01/24 02:34:02;;;;;;;9.40;9.20;;;13.80;99.90;;;;;;5044308;28;20542;-72
2024/01/24 02:36:29;;;;;;;9.83;9.63;;;13.80;99.90;;;;;;5041631;28;20499;-71
2024/01/24 02:38:56;;;;;;;9.30;9.10;;;13.70;99.90;;;;;;5046204;28;20457;-73
2024/01/24 02:41:24;;;;;;;9.20;9.00;;;13.70;99.90;;;;;;5045601;28;20484;-72
2024/01/24 02:43:51;;;;;;;8.70;8.60;;;13.70;99.90;;;;;;5042955;28;20719;-72
2024/01/24 02:46:18;;;;;;;8.47;8.37;;;13.60;99.90;;;;;;5039081;28;20573;-73
2024/01/24 02:48:44;;;;;;;8.73;8.63;;;13.60;99.90;;;;;;5041926;28;20461;-73
2024/01/24 02:51:11;;;;;;;8.27;8.17;;;13.50;99.90;;;;;;5046771;28;20866;-73
2024/01/24 02:53:39;;;;;;;8.47;8.37;;;13.50;99.90;;;;;;5042230;28;20954;-72
2024/01/24 02:56:07;;;;;;;7.77;7.67;;;13.40;99.90;;;;;;5035888;28;20977;-71
2024/01/24 02:58:35;;;;;;;7.50;7.40;;;13.30;99.90;;;;;;5045033;28;20498;-72
2024/01/24 03:01:02;;;;;;;7.03;6.93;;;13.20;99.90;;;;;;5044700;28;20464;-72
2024/01/24 03:03:29;;;;;;;6.23;6.13;;;13.10;99.90;;;;;;5040134;28;20460;-72
2024/01/24 03:05:55;;;;;;;6.90;6.80;;;13.10;99.90;;;;;;5045568;28;20474;-72
2024/01/24 03:08:22;;;;;;;6.40;6.30;;;13.10;99.90;;;;;;5036332;28;20585;-73
2024/01/24 03:10:49;;;;;;;5.90;5.80;;;13.00;99.90;;;;;;5036706;28;20464;-72
2024/01/24 03:13:15;;;;;;;5.87;5.77;;;13.00;99.90;;;;;;5043102;28;20465;-72
2024/01/24 03:15:44;;;;;;;5.93;5.83;;;12.90;99.90;;;;;;5033628;28;20466;-72
2024/01/24 03:18:11;;;;;;;6.00;5.90;;;13.00;99.90;;;;;;5042530;28;20461;-71
2024/01/24 03:20:38;;;;;;;4.90;4.90;;;13.00;99.90;;;;;;5041978;28;20564;-73
2024/01/24 03:23:05;;;;;;;5.33;5.23;;;13.00;99.90;;;;;;5041402;28;20500;-72
2024/01/24 03:25:31;;;;;;;5.17;5.07;;;12.90;99.90;;;;;;5040782;28;20552;-72
2024/01/24 03:27:58;;;;;;;5.13;5.03;;;12.90;99.90;;;;;;5042547;28;20464;-72
2024/01/24 03:30:25;;;;;;;4.67;4.67;;;12.80;99.90;;;;;;5043406;28;20473;-72
2024/01/24 03:32:53;;;;;;;4.50;4.50;;;12.70;99.90;;;;;;5042225;28;20482;-72
2024/01/24 03:35:20;;;;;;;4.80;4.80;;;12.70;99.90;;;;;;5043467;28;20463;-71
2024/01/24 03:37:46;;;;;;;6.23;6.13;;;12.60;99.90;;;;;;5040622;28;20468;-72
2024/01/24 03:40:13;;;;;;;9.87;9.67;;;12.50;99.90;;;;;;5045275;28;20950;-71
2024/01/24 03:42:41;;;;;;;11.23;10.93;;;12.40;99.90;;;;;;5037411;28;20495;-76
2024/01/24 03:45:09;;;;;;;10.93;10.73;;;12.30;99.90;;;;;;5038860;28;20455;-73
2024/01/24 03:47:37;;;;;;;11.23;10.93;;;12.30;99.90;;;;;;5042757;28;20481;-74
2024/01/24 03:50:06;;;;;;;11.50;11.20;;;12.30;99.90;;;;;;5044156;28;20475;-74
2024/01/24 03:52:33;;;;;;;10.80;10.60;;;12.30;99.90;;;;;;5038799;28;20498;-72
2024/01/24 03:54:59;;;;;;;11.60;11.30;;;12.30;99.90;;;;;;5038807;28;20467;-73
2024/01/24 03:57:27;;;;;;;12.60;12.30;;;12.20;99.90;;;;;;5038440;28;20459;-71
2024/01/24 03:59:54;;;;;;;11.40;11.10;;;12.20;99.90;;;;;;5044439;28;20470;-72
2024/01/24 04:02:20;;;;;;;11.60;11.30;;;12.30;99.90;;;;;;5040461;28;20898;-72
2024/01/24 04:04:47;;;;;;;10.90;10.70;;;12.30;99.90;;;;;;5042583;28;20468;-71
2024/01/24 04:07:15;;;;;;;11.73;11.43;;;12.40;99.90;;;;;;5038338;28;20470;-73
2024/01/24 04:09:43;;;;;;;12.30;12.00;;;12.40;99.90;;;;;;5040103;28;20543;-71
2024/01/24 04:12:11;;;;;;;11.83;11.53;;;12.40;99.90;;;;;;5038656;28;20853;-72
2024/01/24 04:14:38;;;;;;;12.50;12.20;;;12.40;99.90;;;;;;5040956;28;20482;-73
2024/01/24 04:17:05;;;;;;;11.50;11.20;;;12.30;99.90;;;;;;5040303;28;20474;-76
2024/01/24 04:19:32;;;;;;;11.50;11.20;;;12.40;99.90;;;;;;5043447;28;20991;-72
2024/01/24 04:21:59;;;;;;;11.23;10.93;;;12.50;99.90;;;;;;5038707;28;21009;-72
2024/01/24 04:24:27;;;;;;;10.93;10.63;;;12.50;99.90;;;;;;5045205;28;20465;-73
2024/01/24 04:26:54;;;;;;;10.23;10.03;;;12.50;99.90;;;;;;5040042;28;20463;-70
2024/01/24 04:29:20;;;;;;;8.70;8.60;;;12.60;99.90;;;;;;5040887;28;21270;-70
2024/01/24 04:31:47;;;;;;;8.67;8.57;;;12.60;99.90;;;;;;5034790;28;20557;-72
2024/01/24 04:34:16;;;;;;;8.20;8.10;;;12.60;99.90;;;;;;5040593;28;20462;-73
2024/01/24 04:36:49;;;;;;;7.70;7.60;;;12.50;99.90;;;;;;5038683;28;21010;-72
2024/01/24 04:39:17;;;;;;;8.03;7.93;;;12.50;99.90;;;;;;5045260;28;20475;-71
2024/01/24 04:41:47;;;;;;;8.50;8.40;;;12.50;99.90;;;;;;5037692;28;20491;-72
2024/01/24 04:44:14;;;;;;;7.90;7.80;;;12.50;99.90;;;;;;5035354;28;20462;-72
2024/01/24 04:46:42;;;;;;;7.60;7.50;;;12.50;99.90;;;;;;5044135;28;20992;-72
2024/01/24 04:49:08;;;;;;;7.60;7.50;;;12.60;99.90;;;;;;5041294;28;20949;-72
2024/01/24 04:51:35;;;;;;;7.23;7.13;;;12.60;99.90;;;;;;5040702;28;20509;-73
2024/01/24 04:54:02;;;;;;;7.03;6.93;;;12.70;99.90;;;;;;5041208;28;20810;-71
2024/01/24 04:56:29;;;;;;;7.20;7.10;;;12.70;99.90;;;;;;5044342;28;20462;-72
2024/01/24 04:58:57;;;;;;;7.40;7.30;;;12.80;99.90;;;;;;5044149;28;20466;-72
2024/01/24 05:01:25;;;;;;;7.10;7.00;;;12.80;99.90;;;;;;5038108;28;20468;-72
2024/01/24 05:03:51;;;;;;;6.77;6.67;;;12.80;99.90;;;;;;5037593;28;20974;-71
2024/01/24 05:06:19;;;;;;;8.53;8.43;;;12.80;99.90;;;;;;5042562;28;20830;-72
2024/01/24 05:08:46;;;;;;;9.10;8.90;;;12.80;99.90;;;;;;5047266;28;20491;-72
2024/01/24 05:11:13;;;;;;;9.20;9.00;;;12.80;99.90;;;;;;5040443;28;20462;-73
2024/01/24 05:13:40;;;;;;;9.10;8.90;;;12.90;99.90;;;;;;5038657;28;20494;-72
2024/01/24 05:16:23;;;;;;;9.20;9.00;;;12.80;99.90;;;;;;5039356;28;20572;-72
2024/01/24 05:18:50;;;;;;;9.77;9.57;;;12.80;99.90;;;;;;5038699;28;20471;-73
2024/01/24 05:21:16;;;;;;;9.73;9.53;;;12.70;99.90;;;;;;5047745;28;20992;-72
2024/01/24 05:23:43;;;;;;;10.23;10.03;;;12.70;99.90;;;;;;5044766;28;20805;-71
2024/01/24 05:26:10;;;;;;;11.50;11.20;;;12.70;99.90;;;;;;5048063;28;21073;-71
2024/01/24 05:28:37;;;;;;;11.70;11.40;;;12.70;99.90;;;;;;5045772;28;20482;-73
2024/01/24 05:31:04;;;;;;;11.20;10.90;;;12.60;99.90;;;;;;5047469;28;20699;-71
2024/01/24 05:33:33;;;;;;;11.40;11.10;;;12.70;99.90;;;;;;5047709;28;20502;-72
2024/01/24 05:36:00;;;;;;;18.43;17.33;;;12.70;99.90;;;;;;5041718;28;20664;-72
2024/01/24 05:38:27;;;;;;;16.47;15.63;;;12.40;99.90;;;;;;5047795;28;20833;-72
2024/01/24 05:40:54;;;;;;;15.73;15.03;;;12.10;99.90;;;;;;5042544;28;20473;-72
2024/01/24 05:43:21;;;;;;;15.30;14.60;;;12.00;99.90;;;;;;5044157;28;20458;-72
2024/01/24 05:45:51;;;;;;;15.37;14.67;;;11.90;99.90;;;;;;5037929;28;20556;-72
2024/01/24 05:48:18;;;;;;;17.60;16.60;;;11.80;99.90;;;;;;5044724;28;20469;-72
2024/01/24 05:50:46;;;;;;;18.40;17.30;;;11.70;99.90;;;;;;5045006;28;20502;-73
2024/01/24 05:53:13;;;;;;;19.47;18.27;;;11.60;99.90;;;;;;5042346;28;20496;-73
2024/01/24 05:55:39;;;;;;;18.30;17.30;;;11.60;99.90;;;;;;5046509;28;20543;-73
2024/01/24 05:58:06;;;;;;;16.30;15.50;;;11.60;99.90;;;;;;5045400;28;21282;-72
2024/01/24 06:00:33;;;;;;;15.60;14.90;;;11.60;99.90;;;;;;5044951;28;20505;-72
2024/01/24 06:03:00;;;;;;;15.30;14.60;;;11.70;99.90;;;;;;5040772;28;20473;-72
2024/01/24 06:05:27;;;;;;;14.10;13.50;;;11.70;99.90;;;;;;5044379;28;20510;-71
2024/01/24 06:07:55;;;;;;;14.80;14.20;;;11.70;99.90;;;;;;5040209;28;20455;-72
2024/01/24 06:10:22;;;;;;;15.50;14.80;;;11.70;99.90;;;;;;5033572;28;20475;-72
2024/01/24 06:12:50;;;;;;;16.03;15.33;;;11.80;99.90;;;;;;5041975;28;20489;-73
2024/01/24 06:15:18;;;;;;;16.10;15.40;;;11.90;99.90;;;;;;5037961;28;20468;-71
2024/01/24 06:17:45;;;;;;;15.73;15.03;;;12.00;99.90;;;;;;5044883;28;20456;-73
2024/01/24 06:20:13;;;;;;;15.47;14.87;;;12.00;99.90;;;;;;5040696;28;21265;-72
2024/01/24 06:22:41;;;;;;;14.43;13.93;;;12.00;99.90;;;;;;5045392;28;20547;-72
2024/01/24 06:25:10;;;;;;;14.33;13.83;;;12.00;99.90;;;;;;5040149;28;20464;-73
2024/01/24 06:27:39;;;;;;;13.83;13.33;;;12.00;99.90;;;;;;5034693;28;20797;-72
2024/01/24 06:30:07;;;;;;;13.53;13.13;;;12.00;99.90;;;;;;5038028;28;20470;-72
2024/01/24 06:32:33;;;;;;;13.97;13.47;;;12.00;99.90;;;;;;5044427;28;20490;-72
2024/01/24 06:35:00;;;;;;;13.40;13.00;;;12.00;99.90;;;;;;5043532;28;20457;-72
2024/01/24 06:37:27;;;;;;;13.43;13.03;;;12.00;99.90;;;;;;5040689;28;20468;-71
2024/01/24 06:39:54;;;;;;;13.53;13.13;;;12.00;99.90;;;;;;5041325;28;21001;-72
2024/01/24 06:42:22;;;;;;;14.33;13.83;;;12.10;99.90;;;;;;5045400;28;20455;-72
2024/01/24 06:44:49;;;;;;;13.70;13.30;;;12.00;99.90;;;;;;5039406;28;20813;-72
2024/01/24 06:47:16;;;;;;;13.90;13.40;;;12.00;99.90;;;;;;5042766;28;20483;-72
2024/01/24 06:49:43;;;;;;;14.00;13.50;;;11.90;99.90;;;;;;5045575;28;20515;-72
2024/01/24 06:52:09;;;;;;;13.50;13.10;;;11.90;99.90;;;;;;5044280;28;20750;-73
2024/01/24 06:54:36;;;;;;;13.80;13.37;;;11.90;99.90;;;;;;5043026;28;20497;-71
2024/01/24 06:57:04;;;;;;;14.20;13.70;;;11.90;99.90;;;;;;5037101;28;20469;-71
2024/01/24 06:59:33;;;;;;;14.47;13.97;;;11.90;99.90;;;;;;5042003;28;20580;-71
2024/01/24 07:02:00;;;;;;;14.13;13.63;;;11.90;99.90;;;;;;5041725;28;20457;-72
2024/01/24 07:04:28;;;;;;;13.67;13.27;;;11.90;99.90;;;;;;5038690;28;20458;-72
2024/01/24 07:06:54;;;;;;;14.50;14.00;;;11.90;99.90;;;;;;5040195;28;20466;-71
2024/01/24 07:09:21;;;;;;;14.10;13.60;;;12.00;99.90;;;;;;5042337;28;20904;-72
2024/01/24 07:11:48;;;;;;;14.13;13.63;;;11.90;99.90;;;;;;5041252;28;20823;-71
2024/01/24 07:14:15;;;;;;;14.23;13.73;;;11.90;99.90;;;;;;5040777;28;21375;-72
2024/01/24 07:16:45;;;;;;;14.20;13.70;;;11.90;99.90;;;;;;5041755;28;20545;-71
2024/01/24 07:19:12;;;;;;;14.23;13.73;;;11.90;99.90;;;;;;5042922;28;20463;-72
2024/01/24 07:21:39;;;;;;;14.30;13.80;;;11.90;99.90;;;;;;5043750;28;20463;-72
2024/01/24 07:24:09;;;;;;;14.70;14.20;;;12.00;99.90;;;;;;5041138;28;20494;-73
2024/01/24 07:26:37;;;;;;;14.60;14.10;;;12.00;99.90;;;;;;5045441;28;20475;-72
2024/01/24 07:29:04;;;;;;;14.57;14.07;;;12.00;99.90;;;;;;5037349;28;20463;-70
2024/01/24 07:31:31;;;;;;;14.97;14.47;;;11.90;99.90;;;;;;5034493;28;20461;-70
2024/01/24 07:33:59;;;;;;;14.53;14.03;;;12.00;99.90;;;;;;5042755;28;20487;-70
2024/01/24 07:36:27;;;;;;;14.90;14.40;;;11.90;99.90;;;;;;5044410;28;20466;-70
2024/01/24 07:38:53;;;;;;;14.70;14.20;;;11.90;99.90;;;;;;5047367;28;20596;-70
2024/01/24 07:41:20;;;;;;;14.47;13.97;;;11.80;99.90;;;;;;5049080;28;20973;-70
2024/01/24 07:43:48;;;;;;;14.10;13.60;;;11.80;99.90;;;;;;5045989;28;20467;-70
2024/01/24 07:46:15;;;;;;;14.10;13.60;;;11.70;99.90;;;;;;5045127;28;20519;-71
2024/01/24 07:48:42;;;;;;;14.40;13.90;;;11.70;99.90;;;;;;5051211;28;20467;-70
2024/01/24 07:51:10;;;;;;;17.80;17.00;;;11.80;99.90;;;;;;5048732;28;20510;-69
2024/01/24 07:53:38;;;;;;;16.40;15.70;;;11.60;99.90;;;;;;5044299;28;20502;-70
2024/01/24 07:56:05;;;;;;;16.00;15.30;;;11.40;99.90;;;;;;5043494;28;20505;-69
2024/01/24 07:58:32;;;;;;;15.00;14.40;;;11.40;99.90;;;;;;5046616;28;20459;-70
2024/01/24 08:01:00;;;;;;;14.43;13.93;;;11.30;99.90;;;;;;5042166;28;20462;-71
2024/01/24 08:03:26;;;;;;;13.80;13.30;;;11.30;99.90;;;;;;5047636;28;20481;-70
2024/01/24 08:05:53;;;;;;;13.80;13.30;;;11.30;99.90;;;;;;5048795;28;20473;-71
2024/01/24 08:08:21;;;;;;;13.60;13.17;;;11.40;99.90;;;;;;5048315;28;20472;-69
2024/01/24 08:10:48;;;;;;;13.47;13.07;;;11.50;99.90;;;;;;5041889;28;20995;-70
2024/01/24 08:13:15;;;;;;;13.80;13.33;;;11.60;99.90;;;;;;5039836;28;20660;-70
2024/01/24 08:15:42;;;;;;;14.43;13.93;;;11.60;99.90;;;;;;5042461;28;20466;-70
2024/01/24 08:18:09;;;;;;;14.53;14.03;;;11.60;99.90;;;;;;5046471;28;20486;-70
2024/01/24 08:20:37;;;;;;;14.50;14.00;;;11.70;99.90;;;;;;5049437;28;20867;-72
2024/01/24 08:23:04;;;;;;;14.83;14.33;;;11.70;99.90;;;;;;5049294;28;20477;-72
2024/01/24 08:25:32;;;;;;;14.83;14.33;;;11.60;99.90;;;;;;5046665;28;20470;-71
2024/01/24 08:27:59;;;;;;;14.93;14.43;;;11.60;99.90;;;;;;5046313;28;20999;-71
2024/01/24 08:30:26;;;;;;;15.30;14.70;;;11.50;99.90;;;;;;5038773;28;20465;-72
2024/01/24 08:32:53;;;;;;;14.90;14.40;;;11.50;99.90;;;;;;5048652;28;21046;-71
2024/01/24 08:35:21;;;;;;;15.23;14.63;;;11.50;99.90;;;;;;5040582;28;20465;-72
2024/01/24 08:37:47;;;;;;;15.00;14.50;;;11.50;99.90;;;;;;5047003;28;20471;-71
2024/01/24 08:40:17;;;;;;;14.83;14.33;;;11.60;99.90;;;;;;5046245;28;20474;-72
2024/01/24 08:42:45;;;;;;;15.63;15.03;;;11.50;99.90;;;;;;5049256;28;20461;-72
2024/01/24 08:45:12;;;;;;;15.30;14.70;;;11.50;99.90;;;;;;5050130;28;20482;-72
2024/01/24 08:47:39;;;;;;;15.50;14.90;;;11.50;99.90;;;;;;5050991;28;20532;-71
2024/01/24 08:50:07;;;;;;;15.57;14.97;;;11.60;99.90;;;;;;5052218;28;20497;-72
2024/01/24 08:52:35;;;;;;;15.30;14.70;;;11.60;99.90;;;;;;5048294;28;20741;-70
2024/01/24 08:55:02;;;;;;;15.47;14.87;;;11.60;99.90;;;;;;5053097;28;20505;-70
2024/01/24 08:57:28;;;;;;;15.03;14.43;;;11.70;99.90;;;;;;5050440;28;20459;-71
2024/01/24 08:59:56;;;;;;;15.70;15.10;;;11.70;99.90;;;;;;5045041;28;21132;-70
2024/01/24 09:02:25;;;;;;;15.53;14.93;;;11.70;99.90;;;;;;5045363;28;20554;-73
2024/01/24 09:04:52;;;;;;;15.33;14.73;;;11.70;99.90;;;;;;5054142;28;20840;-70
2024/01/24 09:07:19;;;;;;;15.27;14.67;;;11.70;99.90;;;;;;5051642;28;20504;-70
2024/01/24 09:09:47;;;;;;;15.27;14.67;;;11.70;99.90;;;;;;5050345;28;20471;-70
2024/01/24 09:12:15;;;;;;;15.10;14.53;;;11.80;99.90;;;;;;5054436;28;20477;-71
2024/01/24 09:14:41;;;;;;;15.73;15.13;;;11.80;99.90;;;;;;5053739;28;20494;-72
2024/01/24 09:17:10;;;;;;;15.70;15.10;;;11.80;99.90;;;;;;5050377;28;20944;-71
2024/01/24 09:19:37;;;;;;;15.60;15.00;;;11.80;99.90;;;;;;5047617;28;20456;-71
2024/01/24 09:22:04;;;;;;;15.43;14.83;;;11.80;99.90;;;;;;5052218;28;20482;-70
2024/01/24 09:24:31;;;;;;;15.87;15.27;;;11.80;99.90;;;;;;5052167;28;20915;-71
2024/01/24 09:26:58;;;;;;;15.60;15.00;;;11.80;99.90;;;;;;5053270;28;20463;-70
2024/01/24 09:29:24;;;;;;;15.40;14.80;;;11.90;99.90;;;;;;5046168;28;20481;-72
2024/01/24 09:31:52;;;;;;;15.50;14.90;;;11.90;99.90;;;;;;5052096;28;20464;-71
2024/01/24 09:34:20;;;;;;;15.47;14.87;;;11.80;99.90;;;;;;5050491;28;20487;-71
2024/01/24 09:36:47;;;;;;;15.33;14.73;;;11.80;99.90;;;;;;5048330;28;20514;-72
2024/01/24 09:39:14;;;;;;;15.40;14.80;;;11.80;99.90;;;;;;5051927;28;20461;-72
2024/01/24 09:41:43;;;;;;;15.13;14.53;;;11.90;99.90;;;;;;5052038;28;20466;-72
2024/01/24 09:44:11;;;;;;;15.40;14.80;;;11.90;99.90;;;;;;5053579;28;20501;-72
2024/01/24 09:46:40;;;;;;;15.47;14.87;;;11.90;99.90;;;;;;5050600;28;20496;-73
2024/01/24 09:49:07;;;;;;;15.80;15.20;;;11.90;99.90;;;;;;5046555;28;20474;-72
2024/01/24 09:51:50;;;;;;;15.43;14.83;;;11.80;99.90;;;;;;5049529;28;21123;-71
2024/01/24 09:54:19;;;;;;;15.70;15.10;;;11.90;99.90;;;;;;5046772;28;20860;-71
2024/01/24 09:56:47;;;;;;;15.07;14.47;;;11.90;99.90;;;;;;5052511;28;20458;-71
2024/01/24 09:59:14;;;;;;;15.13;14.53;;;11.90;99.90;;;;;;5049354;28;20522;-72
2024/01/24 10:01:41;;;;;;;15.20;14.60;;;12.00;99.90;;;;;;5048260;28;20969;-73
2024/01/24 10:04:08;;;;;;;15.53;14.93;;;12.00;99.90;;;;;;5038084;28;20477;-71
2024/01/24 10:06:39;;;;;;;15.40;14.80;;;12.00;99.90;;;;;;5041929;28;20549;-72
2024/01/24 10:09:07;;;;;;;15.10;14.50;;;12.00;99.90;;;;;;5049189;28;20494;-71
2024/01/24 10:11:34;;;;;;;15.57;14.97;;;12.00;99.90;;;;;;5047193;28;20488;-71
2024/01/24 10:14:02;;;;;;;15.43;14.83;;;12.00;99.90;;;;;;5051952;28;20552;-71
2024/01/24 10:16:28;;;;;;;15.37;14.77;;;12.00;99.90;;;;;;5049139;28;20468;-71
2024/01/24 10:18:56;;;;;;;15.50;14.90;;;12.10;99.90;;;;;;5046296;28;20461;-71
2024/01/24 10:21:22;;;;;;;15.30;14.70;;;12.10;99.90;;;;;;5050619;28;20455;-70
2024/01/24 10:23:49;;;;;;;15.03;14.43;;;12.10;99.90;;;;;;5050648;28;20466;-70
2024/01/24 10:26:17;;;;;;;15.63;15.03;;;12.00;99.90;;;;;;5047022;28;20468;-71
2024/01/24 10:28:44;;;;;;;15.53;14.93;;;12.00;99.90;;;;;;5050610;28;20457;-71
2024/01/24 10:31:12;;;;;;;15.20;14.60;;;12.10;99.90;;;;;;5049354;28;20481;-71
2024/01/24 10:33:39;;;;;;;15.33;14.73;;;12.30;99.90;;;;;;5045370;28;20471;-72
2024/01/24 10:36:09;;;;;;;15.37;14.77;;;12.30;99.90;;;;;;5050046;28;20495;-70
2024/01/24 10:38:41;;;;;;;15.80;15.20;;;12.40;99.90;;;;;;5047228;28;20459;-71
2024/01/24 10:41:13;;;;;;;15.40;14.80;;;12.30;99.90;;;;;;5051692;28;20512;-71
2024/01/24 10:43:47;;;;;;;15.67;15.07;;;12.30;99.90;;;;;;5048131;28;20471;-70
2024/01/24 10:46:15;;;;;;;14.83;14.33;;;12.30;99.90;;;;;;5052958;28;20481;-70
2024/01/24 10:48:42;;;;;;;15.30;14.70;;;12.20;99.90;;;;;;5048283;28;20468;-70
2024/01/24 10:51:11;;;;;;;15.40;14.80;;;12.10;99.90;;;;;;5047628;28;20486;-72
2024/01/24 10:53:38;;;;;;;15.27;14.67;;;12.10;99.90;;;;;;5049991;28;20464;-72
2024/01/24 10:56:06;;;;;;;15.30;14.70;;;12.10;99.90;;;;;;5052489;28;20463;-70
2024/01/24 10:58:35;;;;;;;15.37;14.77;;;12.10;99.90;;;;;;5046219;28;20475;-71
2024/01/24 11:01:04;;;;;;;15.03;14.43;;;12.20;99.90;;;;;;5051441;28;20855;-71
2024/01/24 11:03:32;;;;;;;15.80;15.20;;;12.20;99.90;;;;;;5046481;28;20687;-70
2024/01/24 11:06:02;;;;;;;15.67;15.07;;;12.20;99.90;;;;;;5052458;28;20494;-71
2024/01/24 11:08:33;;;;;;;15.50;14.90;;;12.10;99.90;;;;;;5051486;28;20472;-71
2024/01/24 11:11:05;;;;;;;15.70;15.10;;;12.00;99.90;;;;;;5047741;28;20471;-71
2024/01/24 11:13:35;;;;;;;15.47;14.87;;;11.90;99.90;;;;;;5049123;28;20462;-72
2024/01/24 11:16:22;;;;;;;15.80;15.20;;;12.00;99.90;;;;;;5052670;28;20495;-72
2024/01/24 11:18:48;;;;;;;15.40;14.80;;;12.10;99.90;;;;;;5049368;28;20470;-72
2024/01/24 11:21:21;;;;;;;15.40;14.80;;;12.20;99.90;;;;;;5048593;28;20916;-72
2024/01/24 11:23:50;;;;;;;15.53;14.93;;;12.20;99.90;;;;;;5050034;28;20476;-71
2024/01/24 11:26:47;;;;;;;15.60;15.00;;;12.20;99.90;;;;;;5049935;28;20561;-71
2024/01/24 11:29:14;;;;;;;15.23;14.63;;;12.10;99.90;;;;;;5049846;28;20472;-73
2024/01/24 11:31:44;;;;;;;15.40;14.80;;;12.10;99.90;;;;;;5049810;28;20979;-72
2024/01/24 11:34:12;;;;;;;15.80;15.20;;;12.10;99.90;;;;;;5046225;28;20506;-70
2024/01/24 11:36:46;;;;;;;15.40;14.80;;;12.10;99.90;;;;;;5048420;28;20476;-70
2024/01/24 11:39:43;;;;;;;15.80;15.20;;;12.20;99.90;;;;;;5052070;28;20873;-71
2024/01/24 11:42:36;;;;;;;15.27;14.67;;;12.30;99.90;;;;;;4964085;28;20482;-73
2024/01/24 11:45:25;;;;;;;15.40;14.80;;;12.50;99.90;;;;;;5025930;28;20461;-72
2024/01/24 11:47:54;;;;;;;15.60;15.00;;;12.50;99.90;;;;;;5046070;28;20594;-72
2024/01/24 11:50:21;;;;;;;15.30;14.70;;;12.50;99.90;;;;;;5041238;28;21042;-71
2024/01/24 11:52:52;;;;;;;15.50;14.90;;;12.40;99.90;;;;;;5048693;28;20474;-72
2024/01/24 11:55:19;;;;;;;15.37;14.77;;;12.40;99.90;;;;;;5048253;28;20701;-74
2024/01/24 11:57:49;;;;;;;15.50;14.90;;;12.50;99.90;;;;;;5048343;28;20474;-72
2024/01/24 12:00:16;;;;;;;15.03;14.43;;;12.60;99.90;;;;;;5044561;28;21555;-72
2024/01/24 12:02:43;;;;;;;15.10;14.50;;;12.60;99.90;;;;;;5042312;28;20600;-73
2024/01/24 12:05:12;;;;;;;16.00;15.30;;;12.60;99.90;;;;;;5048960;28;20468;-73
2024/01/24 12:07:39;;;;;;;15.33;14.73;;;12.80;99.90;;;;;;5047673;28;20470;-72
2024/01/24 12:10:09;;;;;;;15.57;14.97;;;12.80;99.90;;;;;;5045908;28;20729;-71
2024/01/24 12:12:37;;;;;;;15.20;14.60;;;13.00;99.90;;;;;;5047418;28;20460;-72
2024/01/24 12:15:04;;;;;;;15.63;15.03;;;13.10;99.90;;;;;;5046888;28;20503;-72
2024/01/24 12:17:34;;;;;;;15.23;14.63;;;13.10;99.90;;;;;;5045417;28;20472;-72
2024/01/24 12:20:04;;;;;;;15.27;14.67;;;12.90;99.90;;;;;;5043855;28;20960;-72
2024/01/24 12:22:32;;;;;;;15.60;15.00;;;13.10;99.90;;;;;;5037907;28;20467;-73
2024/01/24 12:25:02;;;;;;;15.37;14.77;;;12.80;99.90;;;;;;5045685;28;20488;-72
2024/01/24 12:27:29;;;;;;;15.57;14.97;;;12.90;99.90;;;;;;5045306;28;20459;-72
2024/01/24 12:29:56;;;;;;;15.33;14.73;;;12.90;99.90;;;;;;5048275;28;20488;-71
2024/01/24 12:32:23;;;;;;;15.23;14.63;;;12.70;99.90;;;;;;5048967;28;20463;-71
2024/01/24 12:34:51;;;;;;;15.40;14.80;;;12.60;99.90;;;;;;5043098;28;20483;-71
2024/01/24 12:37:21;;;;;;;15.03;14.43;;;12.40;99.90;;;;;;5051120;28;20523;-72